Main page
METAR-TAF:

METAR-TAF

Airports :

Kolda North Airport

Kolda, Senegal

latitude: 12-53N, longitude: 014-58W, elevation: 10 m

Current weather observation

The report was made 3 hours and 41 minutes ago, at 00:00 UTC
Calm wind
Temperature 21°C
Humidity 83%
Pressure 1011 hPa
Visibility: 8000 m

METAR: GOGK 090000Z 00000KT 8000 NSC 21/18 Q1011

Time: 03:41 (03:41 UTC)


TAF: missing

Weather observations and forecasts of more than 4000 airports (METAR and TAF reports).

The available stations are represented by yellow and red dots on the map.

Hover mouse over dot to see the name of the station.

Then click to see weather observations and forecasts.

To change the map : click on the green buttons with a black cross to zoom in, on the green button with a dash to zoom out, or on the green arrows for adjacent maps.


METAR-TAF: